sensor_id;sensor_type;location;lat;lon;timestamp;P1;durP1;ratioP1;P2;durP2;ratioP2
10979;SDS011;5543;51.734;8.744;2022-10-16T00:01:37;1.95;;;1.58;;
10979;SDS011;5543;51.734;8.744;2022-10-16T00:04:06;3.75;;;1.98;;
10979;SDS011;5543;51.734;8.744;2022-10-16T00:06:34;2.85;;;2.05;;
10979;SDS011;5543;51.734;8.744;2022-10-16T00:09:02;2.63;;;1.80;;
10979;SDS011;5543;51.734;8.744;2022-10-16T00:11:32;1.73;;;1.60;;
10979;SDS011;5543;51.734;8.744;2022-10-16T00:14:03;1.90;;;1.40;;
10979;SDS011;5543;51.734;8.744;2022-10-16T00:16:34;2.40;;;1.63;;
10979;SDS011;5543;51.734;8.744;2022-10-16T00:19:02;1.73;;;1.63;;
10979;SDS011;5543;51.734;8.744;2022-10-16T00:21:31;2.70;;;1.92;;
10979;SDS011;5543;51.734;8.744;2022-10-16T00:24:00;1.42;;;1.25;;
10979;SDS011;5543;51.734;8.744;2022-10-16T00:26:31;1.98;;;1.55;;
10979;SDS011;5543;51.734;8.744;2022-10-16T00:29:01;1.38;;;1.27;;
10979;SDS011;5543;51.734;8.744;2022-10-16T00:31:30;1.67;;;1.50;;
10979;SDS011;5543;51.734;8.744;2022-10-16T00:33:59;3.67;;;1.80;;
10979;SDS011;5543;51.734;8.744;2022-10-16T00:36:28;1.58;;;1.48;;
10979;SDS011;5543;51.734;8.744;2022-10-16T00:38:56;3.50;;;1.75;;
10979;SDS011;5543;51.734;8.744;2022-10-16T00:41:26;2.08;;;1.88;;
10979;SDS011;5543;51.734;8.744;2022-10-16T00:43:55;3.72;;;2.25;;
10979;SDS011;5543;51.734;8.744;2022-10-16T00:46:25;2.20;;;1.92;;
10979;SDS011;5543;51.734;8.744;2022-10-16T00:48:57;1.77;;;1.60;;
10979;SDS011;5543;51.734;8.744;2022-10-16T00:51:31;1.70;;;1.60;;
10979;SDS011;5543;51.734;8.744;2022-10-16T00:54:01;2.92;;;1.83;;
10979;SDS011;5543;51.734;8.744;2022-10-16T00:56:31;7.10;;;1.88;;
10979;SDS011;5543;51.734;8.744;2022-10-16T00:59:01;2.25;;;1.42;;
10979;SDS011;5543;51.734;8.744;2022-10-16T01:01:33;2.08;;;1.60;;
10979;SDS011;5543;51.734;8.744;2022-10-16T01:04:03;2.38;;;1.83;;
10979;SDS011;5543;51.734;8.744;2022-10-16T01:06:32;4.68;;;1.70;;
10979;SDS011;5543;51.734;8.744;2022-10-16T01:09:11;1.50;;;1.40;;
10979;SDS011;5543;51.734;8.744;2022-10-16T01:11:45;1.95;;;1.60;;
10979;SDS011;5543;51.734;8.744;2022-10-16T01:14:27;2.08;;;1.65;;
10979;SDS011;5543;51.734;8.744;2022-10-16T01:17:00;2.65;;;1.70;;
10979;SDS011;5543;51.734;8.744;2022-10-16T01:19:44;3.83;;;2.35;;
10979;SDS011;5543;51.734;8.744;2022-10-16T01:22:25;1.40;;;1.30;;
10979;SDS011;5543;51.734;8.744;2022-10-16T01:25:01;1.63;;;1.52;;
10979;SDS011;5543;51.734;8.744;2022-10-16T01:27:38;1.50;;;1.40;;
10979;SDS011;5543;51.734;8.744;2022-10-16T01:30:10;2.38;;;1.50;;
10979;SDS011;5543;51.734;8.744;2022-10-16T01:32:42;1.60;;;1.50;;
10979;SDS011;5543;51.734;8.744;2022-10-16T01:35:19;2.38;;;2.03;;
10979;SDS011;5543;51.734;8.744;2022-10-16T01:37:51;3.05;;;1.90;;
10979;SDS011;5543;51.734;8.744;2022-10-16T01:40:29;1.58;;;1.48;;
10979;SDS011;5543;51.734;8.744;2022-10-16T01:43:04;2.97;;;1.45;;
10979;SDS011;5543;51.734;8.744;2022-10-16T01:45:35;2.00;;;1.80;;
10979;SDS011;5543;51.734;8.744;2022-10-16T01:48:04;2.15;;;1.73;;
10979;SDS011;5543;51.734;8.744;2022-10-16T01:50:37;4.78;;;1.55;;
10979;SDS011;5543;51.734;8.744;2022-10-16T01:53:09;3.60;;;1.90;;
10979;SDS011;5543;51.734;8.744;2022-10-16T01:55:41;3.75;;;1.65;;
10979;SDS011;5543;51.734;8.744;2022-10-16T01:58:14;2.20;;;1.48;;
10979;SDS011;5543;51.734;8.744;2022-10-16T02:00:44;4.15;;;1.40;;
10979;SDS011;5543;51.734;8.744;2022-10-16T02:03:14;1.52;;;1.40;;
10979;SDS011;5543;51.734;8.744;2022-10-16T02:05:45;2.40;;;1.67;;
10979;SDS011;5543;51.734;8.744;2022-10-16T02:08:17;2.20;;;2.00;;
10979;SDS011;5543;51.734;8.744;2022-10-16T02:10:45;9.02;;;1.92;;
10979;SDS011;5543;51.734;8.744;2022-10-16T02:13:16;4.05;;;1.70;;
10979;SDS011;5543;51.734;8.744;2022-10-16T02:15:47;1.70;;;1.60;;
10979;SDS011;5543;51.734;8.744;2022-10-16T02:18:15;1.70;;;1.40;;
10979;SDS011;5543;51.734;8.744;2022-10-16T02:20:44;1.73;;;1.40;;
10979;SDS011;5543;51.734;8.744;2022-10-16T02:23:19;1.30;;;1.20;;
10979;SDS011;5543;51.734;8.744;2022-10-16T02:25:55;2.10;;;1.58;;
10979;SDS011;5543;51.734;8.744;2022-10-16T02:28:28;1.40;;;1.20;;
10979;SDS011;5543;51.734;8.744;2022-10-16T02:31:03;1.33;;;1.20;;
10979;SDS011;5543;51.734;8.744;2022-10-16T02:33:35;1.60;;;1.50;;
10979;SDS011;5543;51.734;8.744;2022-10-16T02:36:06;2.22;;;1.40;;
10979;SDS011;5543;51.734;8.744;2022-10-16T02:38:35;1.20;;;1.10;;
10979;SDS011;5543;51.734;8.744;2022-10-16T02:41:03;1.42;;;1.33;;
10979;SDS011;5543;51.734;8.744;2022-10-16T02:43:33;1.13;;;1.02;;
10979;SDS011;5543;51.734;8.744;2022-10-16T02:46:01;1.58;;;1.15;;
10979;SDS011;5543;51.734;8.744;2022-10-16T02:48:29;1.85;;;1.20;;
10979;SDS011;5543;51.734;8.744;2022-10-16T02:50:57;1.00;;;1.00;;
10979;SDS011;5543;51.734;8.744;2022-10-16T02:53:25;1.20;;;1.10;;
10979;SDS011;5543;51.734;8.744;2022-10-16T02:55:53;1.58;;;1.10;;
10979;SDS011;5543;51.734;8.744;2022-10-16T02:58:21;1.42;;;1.33;;
10979;SDS011;5543;51.734;8.744;2022-10-16T03:00:51;1.65;;;1.17;;
10979;SDS011;5543;51.734;8.744;2022-10-16T03:03:19;1.55;;;0.98;;
10979;SDS011;5543;51.734;8.744;2022-10-16T03:05:47;1.05;;;1.00;;
10979;SDS011;5543;51.734;8.744;2022-10-16T03:08:15;3.83;;;1.52;;
10979;SDS011;5543;51.734;8.744;2022-10-16T03:10:43;1.10;;;1.10;;
10979;SDS011;5543;51.734;8.744;2022-10-16T03:13:11;1.70;;;1.17;;
10979;SDS011;5543;51.734;8.744;2022-10-16T03:15:39;0.93;;;0.85;;
10979;SDS011;5543;51.734;8.744;2022-10-16T03:18:08;1.13;;;1.02;;
10979;SDS011;5543;51.734;8.744;2022-10-16T03:20:36;0.90;;;0.90;;
10979;SDS011;5543;51.734;8.744;2022-10-16T03:23:05;4.35;;;1.00;;
10979;SDS011;5543;51.734;8.744;2022-10-16T03:25:34;1.75;;;1.10;;
10979;SDS011;5543;51.734;8.744;2022-10-16T03:28:02;0.80;;;0.80;;
10979;SDS011;5543;51.734;8.744;2022-10-16T03:30:30;1.10;;;0.90;;
10979;SDS011;5543;51.734;8.744;2022-10-16T03:32:58;1.75;;;1.35;;
10979;SDS011;5543;51.734;8.744;2022-10-16T03:35:28;1.02;;;1.00;;
10979;SDS011;5543;51.734;8.744;2022-10-16T03:37:56;2.95;;;1.60;;
10979;SDS011;5543;51.734;8.744;2022-10-16T03:40:24;1.10;;;1.00;;
10979;SDS011;5543;51.734;8.744;2022-10-16T03:42:52;1.20;;;1.10;;
10979;SDS011;5543;51.734;8.744;2022-10-16T03:45:21;1.85;;;1.45;;
10979;SDS011;5543;51.734;8.744;2022-10-16T03:47:49;1.00;;;1.00;;
10979;SDS011;5543;51.734;8.744;2022-10-16T03:50:17;3.08;;;1.00;;
10979;SDS011;5543;51.734;8.744;2022-10-16T03:52:46;1.00;;;1.00;;
10979;SDS011;5543;51.734;8.744;2022-10-16T03:55:14;3.28;;;1.00;;
10979;SDS011;5543;51.734;8.744;2022-10-16T03:57:42;1.00;;;1.00;;
10979;SDS011;5543;51.734;8.744;2022-10-16T04:00:11;5.60;;;1.05;;
10979;SDS011;5543;51.734;8.744;2022-10-16T04:02:39;3.88;;;1.52;;
10979;SDS011;5543;51.734;8.744;2022-10-16T04:05:07;2.47;;;1.10;;
10979;SDS011;5543;51.734;8.744;2022-10-16T04:07:36;1.63;;;0.95;;
10979;SDS011;5543;51.734;8.744;2022-10-16T04:10:05;0.90;;;0.90;;
10979;SDS011;5543;51.734;8.744;2022-10-16T04:12:34;1.38;;;1.27;;
10979;SDS011;5543;51.734;8.744;2022-10-16T04:15:02;1.27;;;1.17;;
10979;SDS011;5543;51.734;8.744;2022-10-16T04:17:30;2.17;;;1.10;;
10979;SDS011;5543;51.734;8.744;2022-10-16T04:19:58;0.95;;;0.95;;
10979;SDS011;5543;51.734;8.744;2022-10-16T04:22:26;1.10;;;1.10;;
10979;SDS011;5543;51.734;8.744;2022-10-16T04:24:54;0.93;;;0.80;;
10979;SDS011;5543;51.734;8.744;2022-10-16T04:27:24;1.27;;;1.20;;
10979;SDS011;5543;51.734;8.744;2022-10-16T04:29:52;1.27;;;1.17;;
10979;SDS011;5543;51.734;8.744;2022-10-16T04:32:21;1.30;;;1.20;;
10979;SDS011;5543;51.734;8.744;2022-10-16T04:34:49;1.20;;;1.10;;
10979;SDS011;5543;51.734;8.744;2022-10-16T04:37:17;5.45;;;1.08;;
10979;SDS011;5543;51.734;8.744;2022-10-16T04:39:45;0.90;;;0.90;;
10979;SDS011;5543;51.734;8.744;2022-10-16T04:42:13;1.58;;;0.98;;
10979;SDS011;5543;51.734;8.744;2022-10-16T04:44:42;1.15;;;1.10;;
10979;SDS011;5543;51.734;8.744;2022-10-16T04:47:10;1.15;;;1.10;;
10979;SDS011;5543;51.734;8.744;2022-10-16T04:49:38;1.38;;;1.27;;
10979;SDS011;5543;51.734;8.744;2022-10-16T04:52:06;1.25;;;1.15;;
10979;SDS011;5543;51.734;8.744;2022-10-16T04:54:35;0.90;;;0.90;;
10979;SDS011;5543;51.734;8.744;2022-10-16T04:57:03;0.93;;;0.93;;
10979;SDS011;5543;51.734;8.744;2022-10-16T04:59:31;1.13;;;1.13;;
10979;SDS011;5543;51.734;8.744;2022-10-16T05:02:01;1.10;;;1.00;;
10979;SDS011;5543;51.734;8.744;2022-10-16T05:04:29;2.47;;;2.10;;
10979;SDS011;5543;51.734;8.744;2022-10-16T05:06:57;5.05;;;3.67;;
10979;SDS011;5543;51.734;8.744;2022-10-16T05:09:25;8.70;;;5.95;;
10979;SDS011;5543;51.734;8.744;2022-10-16T05:11:53;2.70;;;2.05;;
10979;SDS011;5543;51.734;8.744;2022-10-16T05:14:21;2.05;;;1.20;;
10979;SDS011;5543;51.734;8.744;2022-10-16T05:16:49;1.50;;;1.40;;
10979;SDS011;5543;51.734;8.744;2022-10-16T05:19:19;1.00;;;1.00;;
10979;SDS011;5543;51.734;8.744;2022-10-16T05:21:53;1.20;;;1.02;;
10979;SDS011;5543;51.734;8.744;2022-10-16T05:24:21;1.17;;;1.08;;
10979;SDS011;5543;51.734;8.744;2022-10-16T05:26:49;2.15;;;1.48;;
10979;SDS011;5543;51.734;8.744;2022-10-16T05:29:17;0.95;;;0.95;;
10979;SDS011;5543;51.734;8.744;2022-10-16T05:31:46;0.85;;;0.85;;
10979;SDS011;5543;51.734;8.744;2022-10-16T05:34:16;0.85;;;0.85;;
10979;SDS011;5543;51.734;8.744;2022-10-16T05:36:46;0.90;;;0.90;;
10979;SDS011;5543;51.734;8.744;2022-10-16T05:39:14;1.10;;;1.00;;
10979;SDS011;5543;51.734;8.744;2022-10-16T05:41:43;0.90;;;0.90;;
10979;SDS011;5543;51.734;8.744;2022-10-16T05:44:11;1.08;;;1.08;;
10979;SDS011;5543;51.734;8.744;2022-10-16T05:46:39;4.90;;;3.33;;
10979;SDS011;5543;51.734;8.744;2022-10-16T05:49:07;1.13;;;1.02;;
10979;SDS011;5543;51.734;8.744;2022-10-16T05:51:36;0.88;;;0.80;;
10979;SDS011;5543;51.734;8.744;2022-10-16T05:54:04;1.00;;;1.00;;
10979;SDS011;5543;51.734;8.744;2022-10-16T05:56:32;2.08;;;1.40;;
10979;SDS011;5543;51.734;8.744;2022-10-16T05:59:00;1.38;;;1.27;;
10979;SDS011;5543;51.734;8.744;2022-10-16T06:01:30;0.80;;;0.80;;
10979;SDS011;5543;51.734;8.744;2022-10-16T06:03:58;0.88;;;0.88;;
10979;SDS011;5543;51.734;8.744;2022-10-16T06:06:27;1.02;;;1.02;;
10979;SDS011;5543;51.734;8.744;2022-10-16T06:08:57;1.75;;;1.40;;
10979;SDS011;5543;51.734;8.744;2022-10-16T06:11:26;0.90;;;0.90;;
10979;SDS011;5543;51.734;8.744;2022-10-16T06:13:56;0.90;;;0.90;;
10979;SDS011;5543;51.734;8.744;2022-10-16T06:16:28;0.88;;;0.88;;
10979;SDS011;5543;51.734;8.744;2022-10-16T06:18:56;1.02;;;0.93;;
10979;SDS011;5543;51.734;8.744;2022-10-16T06:21:26;0.77;;;0.77;;
10979;SDS011;5543;51.734;8.744;2022-10-16T06:23:55;1.10;;;0.95;;
10979;SDS011;5543;51.734;8.744;2022-10-16T06:26:25;1.00;;;1.00;;
10979;SDS011;5543;51.734;8.744;2022-10-16T06:28:54;2.60;;;0.98;;
10979;SDS011;5543;51.734;8.744;2022-10-16T06:31:23;1.75;;;1.65;;
10979;SDS011;5543;51.734;8.744;2022-10-16T06:33:54;1.35;;;0.93;;
10979;SDS011;5543;51.734;8.744;2022-10-16T06:36:22;1.40;;;1.13;;
10979;SDS011;5543;51.734;8.744;2022-10-16T06:38:51;0.85;;;0.85;;
10979;SDS011;5543;51.734;8.744;2022-10-16T06:41:21;0.82;;;0.82;;
10979;SDS011;5543;51.734;8.744;2022-10-16T06:43:50;0.90;;;0.90;;
10979;SDS011;5543;51.734;8.744;2022-10-16T06:46:20;1.20;;;1.15;;
10979;SDS011;5543;51.734;8.744;2022-10-16T06:48:50;0.75;;;0.75;;
10979;SDS011;5543;51.734;8.744;2022-10-16T06:51:20;0.80;;;0.80;;
10979;SDS011;5543;51.734;8.744;2022-10-16T06:53:49;1.00;;;1.00;;
10979;SDS011;5543;51.734;8.744;2022-10-16T06:56:30;0.75;;;0.75;;
10979;SDS011;5543;51.734;8.744;2022-10-16T06:58:59;1.13;;;0.75;;
10979;SDS011;5543;51.734;8.744;2022-10-16T07:01:28;0.85;;;0.85;;
10979;SDS011;5543;51.734;8.744;2022-10-16T07:03:56;0.90;;;0.90;;
10979;SDS011;5543;51.734;8.744;2022-10-16T07:06:25;0.93;;;0.93;;
10979;SDS011;5543;51.734;8.744;2022-10-16T07:08:54;1.00;;;1.00;;
10979;SDS011;5543;51.734;8.744;2022-10-16T07:11:22;0.77;;;0.77;;
10979;SDS011;5543;51.734;8.744;2022-10-16T07:13:52;0.80;;;0.80;;
10979;SDS011;5543;51.734;8.744;2022-10-16T07:16:22;0.80;;;0.80;;
10979;SDS011;5543;51.734;8.744;2022-10-16T07:18:53;1.38;;;0.80;;
10979;SDS011;5543;51.734;8.744;2022-10-16T07:21:26;1.83;;;0.90;;
10979;SDS011;5543;51.734;8.744;2022-10-16T07:23:56;0.80;;;0.80;;
10979;SDS011;5543;51.734;8.744;2022-10-16T07:26:25;1.13;;;1.13;;
10979;SDS011;5543;51.734;8.744;2022-10-16T07:28:57;1.10;;;1.10;;
10979;SDS011;5543;51.734;8.744;2022-10-16T07:31:25;0.70;;;0.70;;
10979;SDS011;5543;51.734;8.744;2022-10-16T07:33:54;1.13;;;1.00;;
10979;SDS011;5543;51.734;8.744;2022-10-16T07:36:24;1.20;;;1.10;;
10979;SDS011;5543;51.734;8.744;2022-10-16T07:38:52;0.90;;;0.90;;
10979;SDS011;5543;51.734;8.744;2022-10-16T07:41:25;0.82;;;0.82;;
10979;SDS011;5543;51.734;8.744;2022-10-16T07:43:54;1.00;;;1.00;;
10979;SDS011;5543;51.734;8.744;2022-10-16T07:46:27;0.90;;;0.90;;
10979;SDS011;5543;51.734;8.744;2022-10-16T07:48:57;1.10;;;1.00;;
10979;SDS011;5543;51.734;8.744;2022-10-16T07:51:26;0.80;;;0.80;;
10979;SDS011;5543;51.734;8.744;2022-10-16T07:53:54;0.73;;;0.73;;
10979;SDS011;5543;51.734;8.744;2022-10-16T07:56:23;3.17;;;1.00;;
10979;SDS011;5543;51.734;8.744;2022-10-16T07:58:51;0.70;;;0.70;;
10979;SDS011;5543;51.734;8.744;2022-10-16T08:01:20;0.88;;;0.88;;
10979;SDS011;5543;51.734;8.744;2022-10-16T08:03:50;0.85;;;0.85;;
10979;SDS011;5543;51.734;8.744;2022-10-16T08:06:19;0.90;;;0.90;;
10979;SDS011;5543;51.734;8.744;2022-10-16T08:08:53;0.82;;;0.82;;
10979;SDS011;5543;51.734;8.744;2022-10-16T08:11:22;1.08;;;0.80;;
10979;SDS011;5543;51.734;8.744;2022-10-16T08:13:50;1.15;;;1.05;;
10979;SDS011;5543;51.734;8.744;2022-10-16T08:16:18;0.75;;;0.70;;
10979;SDS011;5543;51.734;8.744;2022-10-16T08:18:47;0.70;;;0.70;;
10979;SDS011;5543;51.734;8.744;2022-10-16T08:21:19;0.70;;;0.70;;
10979;SDS011;5543;51.734;8.744;2022-10-16T08:23:49;1.40;;;0.80;;
10979;SDS011;5543;51.734;8.744;2022-10-16T08:26:23;0.73;;;0.70;;
10979;SDS011;5543;51.734;8.744;2022-10-16T08:28:52;1.17;;;1.05;;
10979;SDS011;5543;51.734;8.744;2022-10-16T08:31:21;0.70;;;0.70;;
10979;SDS011;5543;51.734;8.744;2022-10-16T08:33:49;0.60;;;0.60;;
10979;SDS011;5543;51.734;8.744;2022-10-16T08:36:20;1.27;;;0.88;;
10979;SDS011;5543;51.734;8.744;2022-10-16T08:38:48;1.20;;;0.90;;
10979;SDS011;5543;51.734;8.744;2022-10-16T08:41:32;0.70;;;0.70;;
10979;SDS011;5543;51.734;8.744;2022-10-16T08:44:27;0.80;;;0.80;;
10979;SDS011;5543;51.734;8.744;2022-10-16T08:47:06;0.70;;;0.70;;
10979;SDS011;5543;51.734;8.744;2022-10-16T08:49:42;0.60;;;0.60;;
10979;SDS011;5543;51.734;8.744;2022-10-16T08:52:19;0.77;;;0.77;;
10979;SDS011;5543;51.734;8.744;2022-10-16T08:54:47;0.80;;;0.80;;
10979;SDS011;5543;51.734;8.744;2022-10-16T08:57:21;1.17;;;0.90;;
10979;SDS011;5543;51.734;8.744;2022-10-16T08:59:52;0.70;;;0.70;;
10979;SDS011;5543;51.734;8.744;2022-10-16T09:02:24;1.85;;;0.80;;
10979;SDS011;5543;51.734;8.744;2022-10-16T09:05:03;0.93;;;0.75;;
10979;SDS011;5543;51.734;8.744;2022-10-16T09:07:51;3.75;;;0.77;;
10979;SDS011;5543;51.734;8.744;2022-10-16T09:10:29;1.15;;;0.90;;
10979;SDS011;5543;51.734;8.744;2022-10-16T09:13:09;1.10;;;0.80;;
10979;SDS011;5543;51.734;8.744;2022-10-16T09:15:47;1.08;;;1.02;;
10979;SDS011;5543;51.734;8.744;2022-10-16T09:18:21;0.85;;;0.85;;
10979;SDS011;5543;51.734;8.744;2022-10-16T09:20:59;0.80;;;0.80;;
10979;SDS011;5543;51.734;8.744;2022-10-16T09:23:37;1.02;;;1.02;;
10979;SDS011;5543;51.734;8.744;2022-10-16T09:26:05;0.85;;;0.80;;
10979;SDS011;5543;51.734;8.744;2022-10-16T09:28:39;0.80;;;0.80;;
10979;SDS011;5543;51.734;8.744;2022-10-16T09:31:09;0.98;;;0.90;;
10979;SDS011;5543;51.734;8.744;2022-10-16T09:33:42;0.80;;;0.80;;
10979;SDS011;5543;51.734;8.744;2022-10-16T09:36:12;1.00;;;1.00;;
10979;SDS011;5543;51.734;8.744;2022-10-16T09:38:42;1.15;;;1.05;;
10979;SDS011;5543;51.734;8.744;2022-10-16T09:41:13;1.10;;;1.10;;
10979;SDS011;5543;51.734;8.744;2022-10-16T09:43:46;0.82;;;0.82;;
10979;SDS011;5543;51.734;8.744;2022-10-16T09:46:24;0.80;;;0.80;;
10979;SDS011;5543;51.734;8.744;2022-10-16T09:48:56;2.08;;;1.00;;
10979;SDS011;5543;51.734;8.744;2022-10-16T09:51:26;1.10;;;1.00;;
10979;SDS011;5543;51.734;8.744;2022-10-16T09:53:57;0.90;;;0.90;;
10979;SDS011;5543;51.734;8.744;2022-10-16T09:56:27;1.00;;;1.00;;
10979;SDS011;5543;51.734;8.744;2022-10-16T09:58:59;0.98;;;0.98;;
10979;SDS011;5543;51.734;8.744;2022-10-16T10:01:31;0.93;;;0.93;;
10979;SDS011;5543;51.734;8.744;2022-10-16T10:04:04;1.30;;;1.20;;
10979;SDS011;5543;51.734;8.744;2022-10-16T10:06:34;0.90;;;0.90;;
10979;SDS011;5543;51.734;8.744;2022-10-16T10:09:14;1.05;;;1.00;;
10979;SDS011;5543;51.734;8.744;2022-10-16T10:11:50;1.25;;;1.00;;
10979;SDS011;5543;51.734;8.744;2022-10-16T10:14:21;1.15;;;1.05;;
10979;SDS011;5543;51.734;8.744;2022-10-16T10:17:11;0.90;;;0.90;;
10979;SDS011;5543;51.734;8.744;2022-10-16T10:19:44;0.93;;;0.93;;
10979;SDS011;5543;51.734;8.744;2022-10-16T10:22:19;1.00;;;1.00;;
10979;SDS011;5543;51.734;8.744;2022-10-16T10:24:56;1.80;;;1.05;;
10979;SDS011;5543;51.734;8.744;2022-10-16T10:27:31;0.90;;;0.90;;
10979;SDS011;5543;51.734;8.744;2022-10-16T10:30:08;0.65;;;0.65;;
10979;SDS011;5543;51.734;8.744;2022-10-16T10:32:46;0.82;;;0.82;;
10979;SDS011;5543;51.734;8.744;2022-10-16T10:35:25;3.55;;;0.60;;
10979;SDS011;5543;51.734;8.744;2022-10-16T10:38:06;0.68;;;0.68;;
10979;SDS011;5543;51.734;8.744;2022-10-16T10:40:50;0.60;;;0.60;;
10979;SDS011;5543;51.734;8.744;2022-10-16T10:43:29;0.60;;;0.60;;
10979;SDS011;5543;51.734;8.744;2022-10-16T10:46:08;0.68;;;0.68;;
10979;SDS011;5543;51.734;8.744;2022-10-16T10:51:41;0.50;;;0.50;;
10979;SDS011;5543;51.734;8.744;2022-10-16T10:54:17;0.60;;;0.60;;
10979;SDS011;5543;51.734;8.744;2022-10-16T10:56:57;1.13;;;0.70;;
10979;SDS011;5543;51.734;8.744;2022-10-16T10:59:33;0.60;;;0.60;;
10979;SDS011;5543;51.734;8.744;2022-10-16T11:02:26;0.90;;;0.57;;
10979;SDS011;5543;51.734;8.744;2022-10-16T11:07:57;0.80;;;0.80;;
10979;SDS011;5543;51.734;8.744;2022-10-16T11:10:28;0.63;;;0.63;;
10979;SDS011;5543;51.734;8.744;2022-10-16T11:13:16;1.08;;;0.60;;
10979;SDS011;5543;51.734;8.744;2022-10-16T11:15:49;0.70;;;0.70;;
10979;SDS011;5543;51.734;8.744;2022-10-16T11:18:22;0.95;;;0.95;;
10979;SDS011;5543;51.734;8.744;2022-10-16T11:20:56;0.52;;;0.52;;
10979;SDS011;5543;51.734;8.744;2022-10-16T11:23:28;0.70;;;0.68;;
10979;SDS011;5543;51.734;8.744;2022-10-16T11:26:00;0.77;;;0.77;;
10979;SDS011;5543;51.734;8.744;2022-10-16T11:28:34;0.95;;;0.80;;
10979;SDS011;5543;51.734;8.744;2022-10-16T11:31:08;0.98;;;0.68;;
10979;SDS011;5543;51.734;8.744;2022-10-16T11:33:43;0.50;;;0.50;;
10979;SDS011;5543;51.734;8.744;2022-10-16T11:36:16;0.60;;;0.60;;
10979;SDS011;5543;51.734;8.744;2022-10-16T11:38:50;0.85;;;0.85;;
10979;SDS011;5543;51.734;8.744;2022-10-16T11:41:24;0.60;;;0.60;;
10979;SDS011;5543;51.734;8.744;2022-10-16T11:44:00;0.60;;;0.60;;
10979;SDS011;5543;51.734;8.744;2022-10-16T11:46:45;0.70;;;0.70;;
10979;SDS011;5543;51.734;8.744;2022-10-16T11:49:36;0.57;;;0.57;;
10979;SDS011;5543;51.734;8.744;2022-10-16T11:52:07;0.55;;;0.55;;
10979;SDS011;5543;51.734;8.744;2022-10-16T11:54:45;0.55;;;0.55;;
10979;SDS011;5543;51.734;8.744;2022-10-16T11:57:18;0.47;;;0.47;;
10979;SDS011;5543;51.734;8.744;2022-10-16T11:59:53;0.47;;;0.47;;
10979;SDS011;5543;51.734;8.744;2022-10-16T12:02:28;0.52;;;0.52;;
10979;SDS011;5543;51.734;8.744;2022-10-16T12:05:09;0.50;;;0.50;;
10979;SDS011;5543;51.734;8.744;2022-10-16T12:07:48;0.50;;;0.50;;
10979;SDS011;5543;51.734;8.744;2022-10-16T12:10:22;6.28;;;0.80;;
10979;SDS011;5543;51.734;8.744;2022-10-16T12:12:53;1.27;;;0.65;;
10979;SDS011;5543;51.734;8.744;2022-10-16T12:15:25;1.08;;;0.80;;
10979;SDS011;5543;51.734;8.744;2022-10-16T12:18:21;0.50;;;0.50;;
10979;SDS011;5543;51.734;8.744;2022-10-16T12:20:54;0.47;;;0.47;;
10979;SDS011;5543;51.734;8.744;2022-10-16T12:23:27;1.73;;;0.60;;
10979;SDS011;5543;51.734;8.744;2022-10-16T12:25:56;0.60;;;0.60;;
10979;SDS011;5543;51.734;8.744;2022-10-16T12:28:26;0.60;;;0.60;;
10979;SDS011;5543;51.734;8.744;2022-10-16T12:30:57;0.50;;;0.50;;
10979;SDS011;5543;51.734;8.744;2022-10-16T12:33:29;1.83;;;0.73;;
10979;SDS011;5543;51.734;8.744;2022-10-16T12:35:59;1.10;;;0.60;;
10979;SDS011;5543;51.734;8.744;2022-10-16T12:38:32;1.67;;;0.60;;
10979;SDS011;5543;51.734;8.744;2022-10-16T12:41:06;1.00;;;0.68;;
10979;SDS011;5543;51.734;8.744;2022-10-16T12:43:37;0.65;;;0.65;;
10979;SDS011;5543;51.734;8.744;2022-10-16T12:46:35;0.50;;;0.50;;
10979;SDS011;5543;51.734;8.744;2022-10-16T12:49:06;0.57;;;0.57;;
10979;SDS011;5543;51.734;8.744;2022-10-16T12:51:48;1.20;;;0.80;;
10979;SDS011;5543;51.734;8.744;2022-10-16T12:54:17;1.00;;;0.45;;
10979;SDS011;5543;51.734;8.744;2022-10-16T12:56:50;0.65;;;0.65;;
10979;SDS011;5543;51.734;8.744;2022-10-16T12:59:36;0.80;;;0.80;;
10979;SDS011;5543;51.734;8.744;2022-10-16T13:02:29;0.70;;;0.70;;
10979;SDS011;5543;51.734;8.744;2022-10-16T13:05:25;0.60;;;0.60;;
10979;SDS011;5543;51.734;8.744;2022-10-16T13:08:02;0.40;;;0.40;;
10979;SDS011;5543;51.734;8.744;2022-10-16T13:10:46;0.60;;;0.60;;
10979;SDS011;5543;51.734;8.744;2022-10-16T13:13:32;0.60;;;0.60;;
10979;SDS011;5543;51.734;8.744;2022-10-16T13:16:13;0.93;;;0.80;;
10979;SDS011;5543;51.734;8.744;2022-10-16T13:18:54;6.07;;;1.27;;
10979;SDS011;5543;51.734;8.744;2022-10-16T13:21:34;0.45;;;0.45;;
10979;SDS011;5543;51.734;8.744;2022-10-16T13:24:15;1.33;;;0.77;;
10979;SDS011;5543;51.734;8.744;2022-10-16T13:26:50;0.70;;;0.70;;
10979;SDS011;5543;51.734;8.744;2022-10-16T13:29:23;0.70;;;0.70;;
10979;SDS011;5543;51.734;8.744;2022-10-16T13:31:57;0.60;;;0.60;;
10979;SDS011;5543;51.734;8.744;2022-10-16T13:34:28;0.77;;;0.77;;
10979;SDS011;5543;51.734;8.744;2022-10-16T13:36:57;0.40;;;0.40;;
10979;SDS011;5543;51.734;8.744;2022-10-16T13:39:25;0.60;;;0.60;;
10979;SDS011;5543;51.734;8.744;2022-10-16T13:42:00;0.70;;;0.70;;
10979;SDS011;5543;51.734;8.744;2022-10-16T13:44:35;0.93;;;0.70;;
10979;SDS011;5543;51.734;8.744;2022-10-16T13:47:10;0.70;;;0.70;;
10979;SDS011;5543;51.734;8.744;2022-10-16T13:49:45;1.00;;;1.00;;
10979;SDS011;5543;51.734;8.744;2022-10-16T13:52:17;1.27;;;1.00;;
10979;SDS011;5543;51.734;8.744;2022-10-16T13:54:47;0.60;;;0.60;;
10979;SDS011;5543;51.734;8.744;2022-10-16T13:57:15;0.85;;;0.85;;
10979;SDS011;5543;51.734;8.744;2022-10-16T13:59:53;1.35;;;0.70;;
10979;SDS011;5543;51.734;8.744;2022-10-16T14:02:24;0.75;;;0.75;;
10979;SDS011;5543;51.734;8.744;2022-10-16T14:04:56;0.70;;;0.70;;
10979;SDS011;5543;51.734;8.744;2022-10-16T14:07:26;0.73;;;0.73;;
10979;SDS011;5543;51.734;8.744;2022-10-16T14:09:58;1.30;;;0.63;;
10979;SDS011;5543;51.734;8.744;2022-10-16T14:12:29;1.73;;;0.80;;
10979;SDS011;5543;51.734;8.744;2022-10-16T14:14:58;0.52;;;0.52;;
10979;SDS011;5543;51.734;8.744;2022-10-16T14:17:28;0.70;;;0.70;;
10979;SDS011;5543;51.734;8.744;2022-10-16T14:20:00;0.55;;;0.55;;
10979;SDS011;5543;51.734;8.744;2022-10-16T14:22:33;0.80;;;0.80;;
10979;SDS011;5543;51.734;8.744;2022-10-16T14:25:15;0.73;;;0.73;;
10979;SDS011;5543;51.734;8.744;2022-10-16T14:28:02;0.75;;;0.75;;
10979;SDS011;5543;51.734;8.744;2022-10-16T14:30:32;0.63;;;0.63;;
10979;SDS011;5543;51.734;8.744;2022-10-16T14:33:03;0.98;;;0.90;;
10979;SDS011;5543;51.734;8.744;2022-10-16T14:35:35;0.82;;;0.70;;
10979;SDS011;5543;51.734;8.744;2022-10-16T14:38:05;0.80;;;0.80;;
10979;SDS011;5543;51.734;8.744;2022-10-16T14:40:46;0.70;;;0.70;;
10979;SDS011;5543;51.734;8.744;2022-10-16T14:43:17;0.80;;;0.80;;
10979;SDS011;5543;51.734;8.744;2022-10-16T14:45:50;0.95;;;0.90;;
10979;SDS011;5543;51.734;8.744;2022-10-16T14:48:20;0.85;;;0.85;;
10979;SDS011;5543;51.734;8.744;2022-10-16T14:50:50;1.05;;;1.05;;
10979;SDS011;5543;51.734;8.744;2022-10-16T14:53:18;0.75;;;0.75;;
10979;SDS011;5543;51.734;8.744;2022-10-16T14:55:47;1.92;;;1.38;;
10979;SDS011;5543;51.734;8.744;2022-10-16T14:58:16;0.82;;;0.82;;
10979;SDS011;5543;51.734;8.744;2022-10-16T15:00:46;1.20;;;1.10;;
10979;SDS011;5543;51.734;8.744;2022-10-16T15:03:15;1.17;;;0.77;;
10979;SDS011;5543;51.734;8.744;2022-10-16T15:05:43;0.88;;;0.88;;
10979;SDS011;5543;51.734;8.744;2022-10-16T15:08:13;0.70;;;0.70;;
10979;SDS011;5543;51.734;8.744;2022-10-16T15:10:41;0.82;;;0.82;;
10979;SDS011;5543;51.734;8.744;2022-10-16T15:13:11;1.13;;;0.90;;
10979;SDS011;5543;51.734;8.744;2022-10-16T15:15:42;0.95;;;0.95;;
10979;SDS011;5543;51.734;8.744;2022-10-16T15:18:12;1.13;;;1.08;;
10979;SDS011;5543;51.734;8.744;2022-10-16T15:20:47;0.90;;;0.90;;
10979;SDS011;5543;51.734;8.744;2022-10-16T15:23:18;1.02;;;1.02;;
10979;SDS011;5543;51.734;8.744;2022-10-16T15:25:49;1.42;;;1.33;;
10979;SDS011;5543;51.734;8.744;2022-10-16T15:28:20;1.77;;;1.25;;
10979;SDS011;5543;51.734;8.744;2022-10-16T15:30:49;0.90;;;0.90;;
10979;SDS011;5543;51.734;8.744;2022-10-16T15:33:19;1.30;;;1.20;;
10979;SDS011;5543;51.734;8.744;2022-10-16T15:35:49;1.10;;;1.10;;